sensor_id;sensor_type;location;lat;lon;timestamp;temperature;humidity
50013;DHT22;35901;48.694;9.476;2023-05-07T00:00:03;10.60;99.90
50013;DHT22;35901;48.694;9.476;2023-05-07T00:02:34;10.50;99.90
50013;DHT22;35901;48.694;9.476;2023-05-07T00:04:59;10.40;99.90
50013;DHT22;35901;48.694;9.476;2023-05-07T00:07:25;10.30;99.90
50013;DHT22;35901;48.694;9.476;2023-05-07T00:09:51;10.30;99.90
50013;DHT22;35901;48.694;9.476;2023-05-07T00:12:16;10.30;99.90
50013;DHT22;35901;48.694;9.476;2023-05-07T00:14:42;10.30;99.90
50013;DHT22;35901;48.694;9.476;2023-05-07T00:17:08;10.30;99.90
50013;DHT22;35901;48.694;9.476;2023-05-07T00:19:33;10.20;99.90
50013;DHT22;35901;48.694;9.476;2023-05-07T00:21:59;10.30;99.90
50013;DHT22;35901;48.694;9.476;2023-05-07T00:24:25;10.20;99.90
50013;DHT22;35901;48.694;9.476;2023-05-07T00:26:50;10.20;99.90
50013;DHT22;35901;48.694;9.476;2023-05-07T00:29:16;10.20;99.90
50013;DHT22;35901;48.694;9.476;2023-05-07T00:31:42;10.20;99.90
50013;DHT22;35901;48.694;9.476;2023-05-07T00:34:07;10.20;99.90
50013;DHT22;35901;48.694;9.476;2023-05-07T00:36:33;10.20;99.90
50013;DHT22;35901;48.694;9.476;2023-05-07T00:39:00;10.20;99.90
50013;DHT22;35901;48.694;9.476;2023-05-07T00:41:29;10.20;99.90
50013;DHT22;35901;48.694;9.476;2023-05-07T00:43:56;10.20;99.90
50013;DHT22;35901;48.694;9.476;2023-05-07T00:46:22;10.20;99.90
50013;DHT22;35901;48.694;9.476;2023-05-07T00:48:50;10.10;99.90
50013;DHT22;35901;48.694;9.476;2023-05-07T00:51:17;10.10;99.90
50013;DHT22;35901;48.694;9.476;2023-05-07T00:53:43;10.10;99.90
50013;DHT22;35901;48.694;9.476;2023-05-07T00:56:09;10.10;99.90
50013;DHT22;35901;48.694;9.476;2023-05-07T00:58:35;10.20;99.90
50013;DHT22;35901;48.694;9.476;2023-05-07T01:01:01;10.20;99.90
50013;DHT22;35901;48.694;9.476;2023-05-07T01:03:28;10.20;99.90
50013;DHT22;35901;48.694;9.476;2023-05-07T01:05:54;10.20;99.90
50013;DHT22;35901;48.694;9.476;2023-05-07T01:08:23;10.20;99.90
50013;DHT22;35901;48.694;9.476;2023-05-07T01:10:52;10.10;99.90
50013;DHT22;35901;48.694;9.476;2023-05-07T01:13:19;10.00;99.90
50013;DHT22;35901;48.694;9.476;2023-05-07T01:15:44;9.90;99.90
50013;DHT22;35901;48.694;9.476;2023-05-07T01:18:11;9.80;99.90
50013;DHT22;35901;48.694;9.476;2023-05-07T01:20:37;9.80;99.90
50013;DHT22;35901;48.694;9.476;2023-05-07T01:23:03;9.70;99.90
50013;DHT22;35901;48.694;9.476;2023-05-07T01:25:29;9.70;99.90
50013;DHT22;35901;48.694;9.476;2023-05-07T01:27:58;9.70;99.90
50013;DHT22;35901;48.694;9.476;2023-05-07T01:30:30;9.60;99.90
50013;DHT22;35901;48.694;9.476;2023-05-07T01:33:09;9.60;99.90
50013;DHT22;35901;48.694;9.476;2023-05-07T01:35:39;9.60;99.90
50013;DHT22;35901;48.694;9.476;2023-05-07T01:38:07;9.60;99.90
50013;DHT22;35901;48.694;9.476;2023-05-07T01:40:34;9.50;99.90
50013;DHT22;35901;48.694;9.476;2023-05-07T01:43:02;9.40;99.90
50013;DHT22;35901;48.694;9.476;2023-05-07T01:45:28;9.40;99.90
50013;DHT22;35901;48.694;9.476;2023-05-07T01:47:58;9.40;99.90
50013;DHT22;35901;48.694;9.476;2023-05-07T01:50:25;9.40;99.90
50013;DHT22;35901;48.694;9.476;2023-05-07T01:52:52;9.40;99.90
50013;DHT22;35901;48.694;9.476;2023-05-07T01:55:18;9.40;99.90
50013;DHT22;35901;48.694;9.476;2023-05-07T01:57:44;9.50;99.90
50013;DHT22;35901;48.694;9.476;2023-05-07T02:00:10;9.60;99.90
50013;DHT22;35901;48.694;9.476;2023-05-07T02:02:42;9.60;99.90
50013;DHT22;35901;48.694;9.476;2023-05-07T02:05:17;9.60;99.90
50013;DHT22;35901;48.694;9.476;2023-05-07T02:07:46;9.60;99.90
50013;DHT22;35901;48.694;9.476;2023-05-07T02:10:12;9.50;99.90
50013;DHT22;35901;48.694;9.476;2023-05-07T02:12:38;9.40;99.90
50013;DHT22;35901;48.694;9.476;2023-05-07T02:15:04;9.40;99.90
50013;DHT22;35901;48.694;9.476;2023-05-07T02:17:31;9.30;99.90
50013;DHT22;35901;48.694;9.476;2023-05-07T02:19:58;9.30;99.90
50013;DHT22;35901;48.694;9.476;2023-05-07T02:22:24;9.30;99.90
50013;DHT22;35901;48.694;9.476;2023-05-07T02:24:50;9.40;99.90
50013;DHT22;35901;48.694;9.476;2023-05-07T02:27:16;9.40;99.90
50013;DHT22;35901;48.694;9.476;2023-05-07T02:29:43;9.40;99.90
50013;DHT22;35901;48.694;9.476;2023-05-07T02:32:09;9.50;99.90
50013;DHT22;35901;48.694;9.476;2023-05-07T02:34:34;9.50;99.90
50013;DHT22;35901;48.694;9.476;2023-05-07T02:37:00;9.50;99.90
50013;DHT22;35901;48.694;9.476;2023-05-07T02:39:26;9.40;99.90
50013;DHT22;35901;48.694;9.476;2023-05-07T02:41:52;9.30;99.90
50013;DHT22;35901;48.694;9.476;2023-05-07T02:44:17;9.30;99.90
50013;DHT22;35901;48.694;9.476;2023-05-07T02:46:46;9.20;99.90
50013;DHT22;35901;48.694;9.476;2023-05-07T02:49:12;9.10;99.90
50013;DHT22;35901;48.694;9.476;2023-05-07T02:51:37;9.10;99.90
50013;DHT22;35901;48.694;9.476;2023-05-07T02:54:09;9.00;99.90
50013;DHT22;35901;48.694;9.476;2023-05-07T02:56:34;8.90;99.90
50013;DHT22;35901;48.694;9.476;2023-05-07T02:59:00;8.80;99.90
50013;DHT22;35901;48.694;9.476;2023-05-07T03:01:30;8.90;99.90
50013;DHT22;35901;48.694;9.476;2023-05-07T03:04:06;8.80;99.90
50013;DHT22;35901;48.694;9.476;2023-05-07T03:06:32;8.80;99.90
50013;DHT22;35901;48.694;9.476;2023-05-07T03:08:58;8.70;99.90
50013;DHT22;35901;48.694;9.476;2023-05-07T03:11:23;8.80;99.90
50013;DHT22;35901;48.694;9.476;2023-05-07T03:13:49;8.80;99.90
50013;DHT22;35901;48.694;9.476;2023-05-07T03:16:17;8.90;99.90
50013;DHT22;35901;48.694;9.476;2023-05-07T03:18:43;8.90;99.90
50013;DHT22;35901;48.694;9.476;2023-05-07T03:21:08;9.00;99.90
50013;DHT22;35901;48.694;9.476;2023-05-07T03:23:34;9.10;99.90
50013;DHT22;35901;48.694;9.476;2023-05-07T03:26:00;9.10;99.90
50013;DHT22;35901;48.694;9.476;2023-05-07T03:28:26;9.10;99.90
50013;DHT22;35901;48.694;9.476;2023-05-07T03:30:57;9.10;99.90
50013;DHT22;35901;48.694;9.476;2023-05-07T03:33:22;8.80;99.90
50013;DHT22;35901;48.694;9.476;2023-05-07T03:35:49;8.70;99.90
50013;DHT22;35901;48.694;9.476;2023-05-07T03:38:19;8.50;99.90
50013;DHT22;35901;48.694;9.476;2023-05-07T03:40:45;8.40;99.90
50013;DHT22;35901;48.694;9.476;2023-05-07T03:43:11;8.40;99.90
50013;DHT22;35901;48.694;9.476;2023-05-07T03:45:41;8.40;99.90
50013;DHT22;35901;48.694;9.476;2023-05-07T03:48:14;8.40;99.90
50013;DHT22;35901;48.694;9.476;2023-05-07T03:50:40;8.40;99.90
50013;DHT22;35901;48.694;9.476;2023-05-07T03:53:06;8.50;99.90
50013;DHT22;35901;48.694;9.476;2023-05-07T03:55:36;8.50;99.90
50013;DHT22;35901;48.694;9.476;2023-05-07T03:58:02;8.60;99.90
50013;DHT22;35901;48.694;9.476;2023-05-07T04:00:28;8.60;99.90
50013;DHT22;35901;48.694;9.476;2023-05-07T04:02:58;8.60;99.90
50013;DHT22;35901;48.694;9.476;2023-05-07T04:05:26;8.60;99.90
50013;DHT22;35901;48.694;9.476;2023-05-07T04:08:00;8.60;99.90
50013;DHT22;35901;48.694;9.476;2023-05-07T04:10:34;8.60;99.90
50013;DHT22;35901;48.694;9.476;2023-05-07T04:13:03;8.50;99.90
50013;DHT22;35901;48.694;9.476;2023-05-07T04:15:29;8.40;99.90
50013;DHT22;35901;48.694;9.476;2023-05-07T04:17:55;8.40;99.90
50013;DHT22;35901;48.694;9.476;2023-05-07T04:20:23;8.40;99.90
50013;DHT22;35901;48.694;9.476;2023-05-07T04:22:55;8.40;99.90
50013;DHT22;35901;48.694;9.476;2023-05-07T04:25:21;8.40;99.90
50013;DHT22;35901;48.694;9.476;2023-05-07T04:27:48;8.40;99.90
50013;DHT22;35901;48.694;9.476;2023-05-07T04:30:15;8.50;99.90
50013;DHT22;35901;48.694;9.476;2023-05-07T04:32:40;8.50;99.90
50013;DHT22;35901;48.694;9.476;2023-05-07T04:35:06;8.80;99.90
50013;DHT22;35901;48.694;9.476;2023-05-07T04:37:33;9.20;99.90
50013;DHT22;35901;48.694;9.476;2023-05-07T04:39:59;9.40;99.90
50013;DHT22;35901;48.694;9.476;2023-05-07T04:42:26;9.30;99.90
50013;DHT22;35901;48.694;9.476;2023-05-07T04:44:53;9.20;99.90
50013;DHT22;35901;48.694;9.476;2023-05-07T04:47:19;9.20;99.90
50013;DHT22;35901;48.694;9.476;2023-05-07T04:49:46;9.10;99.90
50013;DHT22;35901;48.694;9.476;2023-05-07T04:52:11;9.10;99.90
50013;DHT22;35901;48.694;9.476;2023-05-07T04:54:37;9.20;99.90
50013;DHT22;35901;48.694;9.476;2023-05-07T04:57:04;9.20;99.90
50013;DHT22;35901;48.694;9.476;2023-05-07T04:59:30;9.20;99.90
50013;DHT22;35901;48.694;9.476;2023-05-07T05:01:56;9.20;99.90
50013;DHT22;35901;48.694;9.476;2023-05-07T05:04:22;9.30;99.90
50013;DHT22;35901;48.694;9.476;2023-05-07T05:06:47;9.40;99.90
50013;DHT22;35901;48.694;9.476;2023-05-07T05:09:13;9.50;99.90
50013;DHT22;35901;48.694;9.476;2023-05-07T05:11:41;9.70;99.90
50013;DHT22;35901;48.694;9.476;2023-05-07T05:14:06;10.10;99.90
50013;DHT22;35901;48.694;9.476;2023-05-07T05:16:32;10.50;99.90
50013;DHT22;35901;48.694;9.476;2023-05-07T05:18:59;10.30;99.90
50013;DHT22;35901;48.694;9.476;2023-05-07T05:21:24;10.20;99.90
50013;DHT22;35901;48.694;9.476;2023-05-07T05:23:54;10.10;99.90
50013;DHT22;35901;48.694;9.476;2023-05-07T05:26:23;10.20;99.90
50013;DHT22;35901;48.694;9.476;2023-05-07T05:28:48;10.70;99.90
50013;DHT22;35901;48.694;9.476;2023-05-07T05:31:16;11.80;99.90
50013;DHT22;35901;48.694;9.476;2023-05-07T05:33:42;12.90;99.90
50013;DHT22;35901;48.694;9.476;2023-05-07T05:36:11;13.80;99.90
50013;DHT22;35901;48.694;9.476;2023-05-07T05:38:38;14.40;99.90
50013;DHT22;35901;48.694;9.476;2023-05-07T05:41:05;15.00;99.90
50013;DHT22;35901;48.694;9.476;2023-05-07T05:43:31;15.50;99.90
50013;DHT22;35901;48.694;9.476;2023-05-07T05:45:57;15.90;99.90
50013;DHT22;35901;48.694;9.476;2023-05-07T05:48:23;16.40;99.90
50013;DHT22;35901;48.694;9.476;2023-05-07T05:50:49;16.90;99.90
50013;DHT22;35901;48.694;9.476;2023-05-07T05:53:18;17.20;99.90
50013;DHT22;35901;48.694;9.476;2023-05-07T05:55:44;17.60;99.90
50013;DHT22;35901;48.694;9.476;2023-05-07T05:58:11;18.00;99.90
50013;DHT22;35901;48.694;9.476;2023-05-07T06:00:40;18.50;99.90
50013;DHT22;35901;48.694;9.476;2023-05-07T06:03:06;18.90;99.90
50013;DHT22;35901;48.694;9.476;2023-05-07T06:05:33;19.30;99.90
50013;DHT22;35901;48.694;9.476;2023-05-07T06:07:59;19.40;99.90
50013;DHT22;35901;48.694;9.476;2023-05-07T06:10:30;19.70;99.90
50013;DHT22;35901;48.694;9.476;2023-05-07T06:12:56;19.90;99.90
50013;DHT22;35901;48.694;9.476;2023-05-07T06:15:22;20.10;99.90
50013;DHT22;35901;48.694;9.476;2023-05-07T06:17:48;20.40;99.90
50013;DHT22;35901;48.694;9.476;2023-05-07T06:20:14;20.40;99.90
50013;DHT22;35901;48.694;9.476;2023-05-07T06:22:40;20.50;99.90
50013;DHT22;35901;48.694;9.476;2023-05-07T06:25:08;20.70;99.90
50013;DHT22;35901;48.694;9.476;2023-05-07T06:27:34;21.10;99.90
50013;DHT22;35901;48.694;9.476;2023-05-07T06:29:59;21.40;99.90
50013;DHT22;35901;48.694;9.476;2023-05-07T06:32:25;21.70;99.90
50013;DHT22;35901;48.694;9.476;2023-05-07T06:34:51;21.70;99.90
50013;DHT22;35901;48.694;9.476;2023-05-07T06:37:18;21.80;99.90
50013;DHT22;35901;48.694;9.476;2023-05-07T06:39:50;21.80;99.90
50013;DHT22;35901;48.694;9.476;2023-05-07T06:42:16;21.80;99.90
50013;DHT22;35901;48.694;9.476;2023-05-07T06:44:45;21.60;99.90
50013;DHT22;35901;48.694;9.476;2023-05-07T06:47:13;21.60;99.90
50013;DHT22;35901;48.694;9.476;2023-05-07T06:49:39;21.80;99.90
50013;DHT22;35901;48.694;9.476;2023-05-07T06:52:05;21.90;99.90
50013;DHT22;35901;48.694;9.476;2023-05-07T06:54:31;22.00;99.90
50013;DHT22;35901;48.694;9.476;2023-05-07T06:56:57;22.00;99.90
50013;DHT22;35901;48.694;9.476;2023-05-07T06:59:25;22.00;99.90
50013;DHT22;35901;48.694;9.476;2023-05-07T07:01:52;22.00;99.90
50013;DHT22;35901;48.694;9.476;2023-05-07T07:04:17;21.90;99.90
50013;DHT22;35901;48.694;9.476;2023-05-07T07:06:48;21.80;99.90
50013;DHT22;35901;48.694;9.476;2023-05-07T07:09:14;21.60;99.90
50013;DHT22;35901;48.694;9.476;2023-05-07T07:11:40;21.80;99.90
50013;DHT22;35901;48.694;9.476;2023-05-07T07:14:06;21.00;99.90
50013;DHT22;35901;48.694;9.476;2023-05-07T07:16:37;20.80;99.90
50013;DHT22;35901;48.694;9.476;2023-05-07T07:19:02;21.20;99.90
50013;DHT22;35901;48.694;9.476;2023-05-07T07:21:28;21.20;99.90
50013;DHT22;35901;48.694;9.476;2023-05-07T07:23:54;21.10;99.90
50013;DHT22;35901;48.694;9.476;2023-05-07T07:26:20;21.30;99.90
50013;DHT22;35901;48.694;9.476;2023-05-07T07:28:47;21.40;99.90
50013;DHT22;35901;48.694;9.476;2023-05-07T07:31:16;22.00;99.90
50013;DHT22;35901;48.694;9.476;2023-05-07T07:33:42;22.20;99.90
50013;DHT22;35901;48.694;9.476;2023-05-07T07:36:09;22.10;99.90
50013;DHT22;35901;48.694;9.476;2023-05-07T07:38:35;21.90;99.90
50013;DHT22;35901;48.694;9.476;2023-05-07T07:41:01;22.20;99.90
50013;DHT22;35901;48.694;9.476;2023-05-07T07:43:28;22.10;99.90
50013;DHT22;35901;48.694;9.476;2023-05-07T07:45:54;22.20;99.90
50013;DHT22;35901;48.694;9.476;2023-05-07T07:48:20;22.70;99.90
50013;DHT22;35901;48.694;9.476;2023-05-07T07:50:49;22.80;99.90
50013;DHT22;35901;48.694;9.476;2023-05-07T07:53:16;23.00;99.90
50013;DHT22;35901;48.694;9.476;2023-05-07T07:55:42;23.00;99.90
50013;DHT22;35901;48.694;9.476;2023-05-07T07:58:11;22.80;99.90
50013;DHT22;35901;48.694;9.476;2023-05-07T08:00:36;23.10;99.90
50013;DHT22;35901;48.694;9.476;2023-05-07T08:03:02;23.10;99.90
50013;DHT22;35901;48.694;9.476;2023-05-07T08:05:32;24.00;98.70
50013;DHT22;35901;48.694;9.476;2023-05-07T08:08:00;23.90;99.90
50013;DHT22;35901;48.694;9.476;2023-05-07T08:10:30;23.50;99.90
50013;DHT22;35901;48.694;9.476;2023-05-07T08:13:03;23.60;98.80
50013;DHT22;35901;48.694;9.476;2023-05-07T08:15:31;23.90;99.90
50013;DHT22;35901;48.694;9.476;2023-05-07T08:17:57;23.60;98.90
50013;DHT22;35901;48.694;9.476;2023-05-07T08:20:24;23.10;99.90
50013;DHT22;35901;48.694;9.476;2023-05-07T08:22:51;23.50;99.90
50013;DHT22;35901;48.694;9.476;2023-05-07T08:25:17;24.20;99.50
50013;DHT22;35901;48.694;9.476;2023-05-07T08:27:43;24.30;99.30
50013;DHT22;35901;48.694;9.476;2023-05-07T08:30:11;24.30;98.50
50013;DHT22;35901;48.694;9.476;2023-05-07T08:32:37;23.90;98.00
50013;DHT22;35901;48.694;9.476;2023-05-07T08:35:02;24.30;96.80
50013;DHT22;35901;48.694;9.476;2023-05-07T08:37:28;23.90;99.20
50013;DHT22;35901;48.694;9.476;2023-05-07T08:39:54;23.90;99.90
50013;DHT22;35901;48.694;9.476;2023-05-07T08:42:23;24.90;98.00
50013;DHT22;35901;48.694;9.476;2023-05-07T08:44:51;25.10;97.70
50013;DHT22;35901;48.694;9.476;2023-05-07T08:47:23;25.00;96.90
50013;DHT22;35901;48.694;9.476;2023-05-07T08:49:54;24.00;98.40
50013;DHT22;35901;48.694;9.476;2023-05-07T08:52:20;23.90;99.00
50013;DHT22;35901;48.694;9.476;2023-05-07T08:54:46;24.30;98.00
50013;DHT22;35901;48.694;9.476;2023-05-07T08:57:13;24.30;99.10
50013;DHT22;35901;48.694;9.476;2023-05-07T08:59:40;24.30;99.10
50013;DHT22;35901;48.694;9.476;2023-05-07T09:02:07;25.00;98.40
50013;DHT22;35901;48.694;9.476;2023-05-07T09:04:34;25.00;95.50
50013;DHT22;35901;48.694;9.476;2023-05-07T09:07:01;24.80;96.10
50013;DHT22;35901;48.694;9.476;2023-05-07T09:09:32;25.10;96.30
50013;DHT22;35901;48.694;9.476;2023-05-07T09:11:59;24.80;95.00
50013;DHT22;35901;48.694;9.476;2023-05-07T09:14:27;24.60;95.80
50013;DHT22;35901;48.694;9.476;2023-05-07T09:16:53;24.80;95.70
50013;DHT22;35901;48.694;9.476;2023-05-07T09:19:26;25.50;97.00
50013;DHT22;35901;48.694;9.476;2023-05-07T09:22:01;25.40;96.40
50013;DHT22;35901;48.694;9.476;2023-05-07T09:24:31;25.50;96.80
50013;DHT22;35901;48.694;9.476;2023-05-07T09:27:02;25.40;94.40
50013;DHT22;35901;48.694;9.476;2023-05-07T09:29:29;25.00;95.40
50013;DHT22;35901;48.694;9.476;2023-05-07T09:31:56;25.00;94.50
50013;DHT22;35901;48.694;9.476;2023-05-07T09:34:22;25.30;95.10
50013;DHT22;35901;48.694;9.476;2023-05-07T09:36:48;24.80;94.60
50013;DHT22;35901;48.694;9.476;2023-05-07T09:39:14;24.90;93.90
50013;DHT22;35901;48.694;9.476;2023-05-07T09:41:44;24.90;94.70
50013;DHT22;35901;48.694;9.476;2023-05-07T09:44:16;26.10;93.30
50013;DHT22;35901;48.694;9.476;2023-05-07T09:46:48;25.10;93.40
50013;DHT22;35901;48.694;9.476;2023-05-07T09:49:22;25.00;95.00
50013;DHT22;35901;48.694;9.476;2023-05-07T09:51:52;25.00;94.10
50013;DHT22;35901;48.694;9.476;2023-05-07T09:54:21;25.00;93.20
50013;DHT22;35901;48.694;9.476;2023-05-07T09:56:52;25.10;94.00
50013;DHT22;35901;48.694;9.476;2023-05-07T09:59:20;25.30;93.50
50013;DHT22;35901;48.694;9.476;2023-05-07T10:01:48;25.50;92.90
50013;DHT22;35901;48.694;9.476;2023-05-07T10:04:15;25.80;93.00
50013;DHT22;35901;48.694;9.476;2023-05-07T10:06:44;26.20;91.50
50013;DHT22;35901;48.694;9.476;2023-05-07T10:09:11;25.80;91.90
50013;DHT22;35901;48.694;9.476;2023-05-07T10:11:38;25.80;92.80
50013;DHT22;35901;48.694;9.476;2023-05-07T10:14:05;26.50;92.10
50013;DHT22;35901;48.694;9.476;2023-05-07T10:16:36;26.40;91.30
50013;DHT22;35901;48.694;9.476;2023-05-07T10:19:05;26.60;91.60
50013;DHT22;35901;48.694;9.476;2023-05-07T10:21:36;26.90;92.10
50013;DHT22;35901;48.694;9.476;2023-05-07T10:24:10;26.80;90.30
50013;DHT22;35901;48.694;9.476;2023-05-07T10:26:46;26.80;90.20
50013;DHT22;35901;48.694;9.476;2023-05-07T10:34:41;25.80;90.30
50013;DHT22;35901;48.694;9.476;2023-05-07T10:37:10;25.80;90.40
50013;DHT22;35901;48.694;9.476;2023-05-07T10:39:36;25.70;90.00
50013;DHT22;35901;48.694;9.476;2023-05-07T10:42:13;25.80;89.70
50013;DHT22;35901;48.694;9.476;2023-05-07T10:44:45;26.40;90.50
50013;DHT22;35901;48.694;9.476;2023-05-07T10:47:17;26.70;90.20
50013;DHT22;35901;48.694;9.476;2023-05-07T10:52:21;26.50;92.00
50013;DHT22;35901;48.694;9.476;2023-05-07T10:57:49;27.10;85.20
50013;DHT22;35901;48.694;9.476;2023-05-07T11:05:31;26.30;92.30
50013;DHT22;35901;48.694;9.476;2023-05-07T11:08:11;26.10;90.90
50013;DHT22;35901;48.694;9.476;2023-05-07T11:13:43;25.90;90.60
50013;DHT22;35901;48.694;9.476;2023-05-07T11:16:18;25.70;90.80
50013;DHT22;35901;48.694;9.476;2023-05-07T11:18:52;25.70;91.60
50013;DHT22;35901;48.694;9.476;2023-05-07T11:24:09;25.90;90.00
50013;DHT22;35901;48.694;9.476;2023-05-07T11:26:51;25.60;90.70
50013;DHT22;35901;48.694;9.476;2023-05-07T11:29:21;25.70;88.60
50013;DHT22;35901;48.694;9.476;2023-05-07T11:31:52;25.40;90.60
50013;DHT22;35901;48.694;9.476;2023-05-07T11:34:23;25.80;93.20
50013;DHT22;35901;48.694;9.476;2023-05-07T11:36:50;25.90;91.50
50013;DHT22;35901;48.694;9.476;2023-05-07T11:39:26;25.60;92.00
50013;DHT22;35901;48.694;9.476;2023-05-07T11:41:51;25.60;91.80
50013;DHT22;35901;48.694;9.476;2023-05-07T11:44:17;25.50;92.60
50013;DHT22;35901;48.694;9.476;2023-05-07T11:46:43;25.40;91.60
50013;DHT22;35901;48.694;9.476;2023-05-07T11:49:10;26.20;89.20
50013;DHT22;35901;48.694;9.476;2023-05-07T11:51:36;26.10;88.30
50013;DHT22;35901;48.694;9.476;2023-05-07T11:54:03;26.00;91.80
50013;DHT22;35901;48.694;9.476;2023-05-07T11:56:31;26.20;89.30
50013;DHT22;35901;48.694;9.476;2023-05-07T11:58:59;25.90;88.80
50013;DHT22;35901;48.694;9.476;2023-05-07T12:01:25;25.90;85.20
50013;DHT22;35901;48.694;9.476;2023-05-07T12:03:50;25.50;86.90
50013;DHT22;35901;48.694;9.476;2023-05-07T12:06:16;25.80;86.30
50013;DHT22;35901;48.694;9.476;2023-05-07T12:08:43;25.50;87.80
50013;DHT22;35901;48.694;9.476;2023-05-07T12:11:13;25.40;90.60
50013;DHT22;35901;48.694;9.476;2023-05-07T12:13:39;25.50;88.70
50013;DHT22;35901;48.694;9.476;2023-05-07T12:16:07;24.80;85.90
50013;DHT22;35901;48.694;9.476;2023-05-07T12:18:34;24.40;89.40
50013;DHT22;35901;48.694;9.476;2023-05-07T12:21:01;24.50;90.30
50013;DHT22;35901;48.694;9.476;2023-05-07T12:23:27;24.20;92.20
50013;DHT22;35901;48.694;9.476;2023-05-07T12:25:53;23.90;90.80
50013;DHT22;35901;48.694;9.476;2023-05-07T12:28:19;23.60;92.40
50013;DHT22;35901;48.694;9.476;2023-05-07T12:30:47;23.40;93.10
50013;DHT22;35901;48.694;9.476;2023-05-07T12:33:18;23.30;92.30
50013;DHT22;35901;48.694;9.476;2023-05-07T12:35:44;23.00;91.70
50013;DHT22;35901;48.694;9.476;2023-05-07T12:38:12;22.50;92.20
50013;DHT22;35901;48.694;9.476;2023-05-07T12:40:45;22.00;92.90
50013;DHT22;35901;48.694;9.476;2023-05-07T12:43:24;21.60;93.30
50013;DHT22;35901;48.694;9.476;2023-05-07T12:45:51;21.30;93.10
50013;DHT22;35901;48.694;9.476;2023-05-07T12:48:19;21.10;93.30
50013;DHT22;35901;48.694;9.476;2023-05-07T12:50:48;20.90;93.60
50013;DHT22;35901;48.694;9.476;2023-05-07T12:53:14;20.70;94.80
50013;DHT22;35901;48.694;9.476;2023-05-07T12:55:45;20.40;95.20
50013;DHT22;35901;48.694;9.476;2023-05-07T12:58:16;20.20;94.40
50013;DHT22;35901;48.694;9.476;2023-05-07T13:00:42;20.00;94.20
50013;DHT22;35901;48.694;9.476;2023-05-07T13:03:09;19.90;93.50
50013;DHT22;35901;48.694;9.476;2023-05-07T13:05:35;19.90;94.00
50013;DHT22;35901;48.694;9.476;2023-05-07T13:08:01;19.80;94.90
50013;DHT22;35901;48.694;9.476;2023-05-07T13:10:27;19.50;96.30
50013;DHT22;35901;48.694;9.476;2023-05-07T13:12:53;19.30;96.80
50013;DHT22;35901;48.694;9.476;2023-05-07T13:15:19;19.10;97.30
50013;DHT22;35901;48.694;9.476;2023-05-07T13:17:45;18.90;98.90
50013;DHT22;35901;48.694;9.476;2023-05-07T13:20:11;18.60;99.80
50013;DHT22;35901;48.694;9.476;2023-05-07T13:22:38;18.40;99.50
50013;DHT22;35901;48.694;9.476;2023-05-07T13:25:05;18.40;99.30
50013;DHT22;35901;48.694;9.476;2023-05-07T13:27:31;18.60;99.20
50013;DHT22;35901;48.694;9.476;2023-05-07T13:29:57;18.70;99.10
50013;DHT22;35901;48.694;9.476;2023-05-07T13:32:23;18.60;99.90
50013;DHT22;35901;48.694;9.476;2023-05-07T13:34:48;18.40;99.60
50013;DHT22;35901;48.694;9.476;2023-05-07T13:37:14;18.40;99.90
50013;DHT22;35901;48.694;9.476;2023-05-07T13:39:40;18.30;99.90
50013;DHT22;35901;48.694;9.476;2023-05-07T13:42:06;18.30;99.90
50013;DHT22;35901;48.694;9.476;2023-05-07T13:44:32;18.30;99.90
50013;DHT22;35901;48.694;9.476;2023-05-07T13:46:58;18.30;99.90
50013;DHT22;35901;48.694;9.476;2023-05-07T13:49:24;18.30;99.90
50013;DHT22;35901;48.694;9.476;2023-05-07T13:51:49;18.20;99.90
50013;DHT22;35901;48.694;9.476;2023-05-07T13:54:15;18.10;99.90
50013;DHT22;35901;48.694;9.476;2023-05-07T13:56:41;18.00;99.90
50013;DHT22;35901;48.694;9.476;2023-05-07T13:59:07;17.90;99.90
50013;DHT22;35901;48.694;9.476;2023-05-07T14:01:33;17.80;99.90
50013;DHT22;35901;48.694;9.476;2023-05-07T14:03:59;17.80;99.90
50013;DHT22;35901;48.694;9.476;2023-05-07T14:06:25;17.80;99.90
50013;DHT22;35901;48.694;9.476;2023-05-07T14:08:51;17.80;99.90
50013;DHT22;35901;48.694;9.476;2023-05-07T14:11:17;17.80;99.90
50013;DHT22;35901;48.694;9.476;2023-05-07T14:13:42;17.60;99.90
50013;DHT22;35901;48.694;9.476;2023-05-07T14:16:08;17.40;99.90
50013;DHT22;35901;48.694;9.476;2023-05-07T14:18:34;17.10;99.90
50013;DHT22;35901;48.694;9.476;2023-05-07T14:21:00;16.80;99.90
50013;DHT22;35901;48.694;9.476;2023-05-07T14:23:26;16.40;99.90
50013;DHT22;35901;48.694;9.476;2023-05-07T14:25:55;16.20;99.90
50013;DHT22;35901;48.694;9.476;2023-05-07T14:28:23;16.00;99.90
50013;DHT22;35901;48.694;9.476;2023-05-07T14:30:48;15.80;99.90
50013;DHT22;35901;48.694;9.476;2023-05-07T14:33:14;15.60;99.90
50013;DHT22;35901;48.694;9.476;2023-05-07T14:35:40;15.50;99.90
50013;DHT22;35901;48.694;9.476;2023-05-07T14:38:05;15.30;99.90
50013;DHT22;35901;48.694;9.476;2023-05-07T14:40:31;15.20;99.90
50013;DHT22;35901;48.694;9.476;2023-05-07T14:42:57;15.10;99.90
50013;DHT22;35901;48.694;9.476;2023-05-07T14:45:23;15.00;99.90
50013;DHT22;35901;48.694;9.476;2023-05-07T14:47:49;14.90;99.90
50013;DHT22;35901;48.694;9.476;2023-05-07T14:50:15;14.80;99.90
50013;DHT22;35901;48.694;9.476;2023-05-07T14:52:40;14.80;99.90
50013;DHT22;35901;48.694;9.476;2023-05-07T14:55:06;14.70;99.90
50013;DHT22;35901;48.694;9.476;2023-05-07T14:57:32;14.70;99.90
50013;DHT22;35901;48.694;9.476;2023-05-07T15:00:04;14.60;99.90
50013;DHT22;35901;48.694;9.476;2023-05-07T15:02:30;14.50;99.90
50013;DHT22;35901;48.694;9.476;2023-05-07T15:04:56;14.40;99.90
50013;DHT22;35901;48.694;9.476;2023-05-07T15:07:22;14.40;99.90
50013;DHT22;35901;48.694;9.476;2023-05-07T15:09:47;14.30;99.90
50013;DHT22;35901;48.694;9.476;2023-05-07T15:12:13;14.20;99.90
50013;DHT22;35901;48.694;9.476;2023-05-07T15:14:39;14.10;99.90
50013;DHT22;35901;48.694;9.476;2023-05-07T15:17:05;14.00;99.90
50013;DHT22;35901;48.694;9.476;2023-05-07T15:19:30;14.00;99.90
50013;DHT22;35901;48.694;9.476;2023-05-07T15:21:59;14.00;99.90
50013;DHT22;35901;48.694;9.476;2023-05-07T15:24:28;13.90;99.90
50013;DHT22;35901;48.694;9.476;2023-05-07T15:26:54;13.90;99.90
50013;DHT22;35901;48.694;9.476;2023-05-07T15:29:20;13.90;99.90
50013;DHT22;35901;48.694;9.476;2023-05-07T15:31:46;13.80;99.90
50013;DHT22;35901;48.694;9.476;2023-05-07T15:34:12;13.80;99.90
50013;DHT22;35901;48.694;9.476;2023-05-07T15:36:40;13.80;99.90
50013;DHT22;35901;48.694;9.476;2023-05-07T15:39:06;13.80;99.90
50013;DHT22;35901;48.694;9.476;2023-05-07T15:41:31;13.80;99.90
50013;DHT22;35901;48.694;9.476;2023-05-07T15:43:57;13.80;99.90
50013;DHT22;35901;48.694;9.476;2023-05-07T15:46:24;13.90;99.90
50013;DHT22;35901;48.694;9.476;2023-05-07T15:48:50;13.90;99.90
50013;DHT22;35901;48.694;9.476;2023-05-07T15:51:16;13.90;99.90
50013;DHT22;35901;48.694;9.476;2023-05-07T15:53:43;14.00;99.90
50013;DHT22;35901;48.694;9.476;2023-05-07T15:56:09;14.10;99.90